NCAR-RAP Real-Time Weather Data

Output produced by METARs form (17 October 2018  16:00 UTC)
found at http://weather.rap.ucar.edu/surface/
 
RJBB 171530Z AUTO 08007KT 9999 NSC 18/13 Q1013 NOSIG
RJBB 171500Z AUTO 09006KT 9999 NSC 18/13 Q1013 NOSIG
RJBB 171430Z AUTO 08005KT 9999 NCD 18/13 Q1013 NOSIG
RJBB 171400Z AUTO 05009KT 9999 NCD 19/13 Q1013 NOSIG
RJBB 171330Z 06009KT 9999 FEW040 BKN/// 19/12 Q1013 NOSIG
RJBB 171300Z 05010KT 9999 FEW040 SCT/// 19/13 Q1014 NOSIG
RJBB 171230Z 04011KT 9999 FEW040 BKN/// 19/13 Q1013 NOSIG
RJBB 171200Z 04014KT 9999 FEW040 BKN/// 19/13 Q1013 NOSIG
RJBB 171130Z 04013KT 9999 FEW040 BKN/// 19/13 Q1013 NOSIG
RJBB 171100Z 03014KT 9999 FEW025 BKN/// 20/13 Q1013 NOSIG
RJBB 171030Z 03015KT 9999 FEW025 BKN/// 20/13 Q1013 NOSIG
RJBB 171000Z 02015KT 9999 FEW030 BKN/// 20/12 Q1012 NOSIG
RJBB 170930Z 02016KT 9999 FEW030 20/12 Q1012 NOSIG
RJBB 170900Z 02013KT 9999 FEW030 BKN/// 20/12 Q1012 NOSIG
RJBB 170830Z 02011KT 9999 FEW030 BKN/// 20/12 Q1011 NOSIG
RJBB 170800Z 03008KT 9999 FEW025 SCT050 BKN/// 21/12 Q1012 NOSIG
RJBB 170739Z 36010KT 320V040 9999 FEW025 SCT050 BKN/// 21/11 Q1011 RMK 1CU025 3SC050 A2988
RJBB 170730Z 30010KT 9999 FEW025 SCT050 BKN/// 21/12 Q1011 BECMG 02016KT
RJBB 170700Z 31010KT 9999 FEW025 SCT040 BKN/// 21/12 Q1011 BECMG TL0730 02018KT
RJBB 170630Z 24005KT 190V270 9999 FEW030 BKN045 22/12 Q1011 BECMG TL0700 02018KT
RJBB 170600Z 28004KT 240V310 9999 FEW030 21/12 Q1011 BECMG TL0700 02018KT
RJBB 170530Z 30004KT 260V330 9999 FEW030 BKN/// 22/10 Q1010 BECMG TL0700 02018KT
RJBB 170500Z 27005KT 240V300 9999 FEW030 BKN/// 21/12 Q1010 BECMG 02018KT
RJBB 170430Z 27005KT 9999 FEW030 BKN/// 21/12 Q1010 NOSIG
RJBB 170400Z 26005KT 220V290 9999 FEW030 BKN/// 21/12 Q1010 NOSIG
RJBB 170330Z 27003KT 240V310 9999 FEW030 BKN/// 21/11 Q1011 NOSIG
RJBB 170300Z 27003KT 230V300 9999 FEW030 BKN/// 21/12 Q1011 NOSIG
RJBB 170230Z 30003KT 260V340 9999 FEW025 BKN/// 21/12 Q1011 NOSIG
RJBB 170200Z VRB01KT 9999 FEW025 BKN/// 21/11 Q1012 NOSIG
RJBB 170130Z 02003KT 320V060 9999 FEW025 BKN/// 21/12 Q1012 NOSIG
RJBB 170100Z 04004KT 9999 FEW020 BKN/// 20/11 Q1012 NOSIG
RJBB 170030Z 03004KT 350V060 9999 FEW020 BKN/// 20/13 Q1012 NOSIG
RJBB 170000Z 05005KT 9999 FEW020 BKN130 19/13 Q1012 NOSIG
RJBB 162330Z 06006KT 9999 FEW020 BKN130 19/14 Q1012 NOSIG
RJBB 162300Z 06008KT 9999 FEW020 BKN130 19/14 Q1012 NOSIG
RJBB 162230Z 05007KT 9999 FEW020 SCT120 19/14 Q1012 NOSIG
RJBB 162200Z 05007KT 9999 FEW020 SCT120 19/14 Q1011 NOSIG
RJBB 162130Z 05008KT 9999 FEW020 BKN120 17/13 Q1011 NOSIG
RJBB 162100Z 05009KT 9999 FEW020 SCT070 BKN100 18/14 Q1011 NOSIG
RJBB 162030Z AUTO 09005KT 9999 -RA NSC 18/14 Q1011 NOSIG
RJBB 162000Z AUTO 10007KT 9999 FEW027 SCT060 BKN070 19/14 Q1011 NOSIG
RJBB 161930Z AUTO 12005KT 9999 SCT027 BKN031 BKN060 19/15 Q1011 NOSIG
RJBB 161900Z AUTO 03004KT 330V070 9999 FEW027 OVC060 19/15 Q1011 NOSIG
RJBB 161830Z AUTO 34007KT 9999 FEW033 OVC060 19/15 Q1011 NOSIG
RJBB 161800Z AUTO 36006KT 320V040 9999 FEW042 BKN050 OVC060 19/15 Q1011 NOSIG
RJBB 161730Z AUTO 02006KT 9999 FEW046 BKN048 OVC050 19/14 Q1011 NOSIG
RJBB 161700Z AUTO 02008KT 9999 FEW050 SCT060 BKN070 19/13 Q1011 NOSIG
RJBB 161630Z AUTO 03012KT 9999 FEW029 SCT060 OVC070 18/14 Q1011 NOSIG
RJBB 161600Z AUTO 08004KT 9999 SCT029 BKN050 BKN100 18/14 Q1010 NOSIG
RJBB 161530Z AUTO 07005KT 6000 -RA BKN050 OVC080 19/15 Q1010 TEMPO 4000 -SHRA BR
RJBB 161500Z AUTO 07006KT 9999 -RA SCT045 BKN050 BKN090 20/14 Q1010 NOSIG
RJBB 161430Z AUTO 09006KT 9999 NSC 20/14 Q1010 NOSIG
RJBB 161400Z AUTO 08004KT 9999 NSC 20/14 Q1011 NOSIG
RJBB 161330Z 04010KT 9999 FEW025 SCT120 BKN180 20/15 Q1011 NOSIG
RJBB 161300Z 04013KT 9999 VCSH FEW025 SCT035 BKN120 20/14 Q1011 NOSIG
RJBB 161230Z 03015KT 9999 FEW025 SCT060 BKN120 20/16 Q1011 NOSIG
RJBB 161200Z 08007KT 9999 FEW030 BKN120 BKN/// 21/14 Q1010 NOSIG
RJBB 161130Z 07005KT 9999 FEW030 SCT130 BKN/// 20/14 Q1010 NOSIG
RJBB 161100Z 07003KT 9999 FEW030 BKN130 BKN/// 21/14 Q1010 NOSIG
RJBB 161030Z 06004KT 9999 FEW030 BKN140 BKN/// 21/14 Q1011 NOSIG
RJBB 161000Z 10003KT 070V140 9999 FEW030 BKN140 BKN/// 21/14 Q1011 NOSIG
RJBB 160930Z 12004KT 090V160 9999 FEW030 BKN130 21/14 Q1011 NOSIG
RJBB 160900Z 13005KT 100V170 9999 FEW030 BKN130 21/15 Q1011 NOSIG
RJBB 160830Z 11007KT 9999 FEW030 BKN130 21/15 Q1010 NOSIG
RJBB 160800Z 11008KT 9999 FEW030 BKN120 21/15 Q1010 NOSIG
RJBB 160730Z 11005KT 9999 FEW030 SCT080 BKN120 21/15 Q1010 NOSIG
RJBB 160700Z 05005KT 9999 VCSH FEW030 SCT080 BKN120 21/14 Q1011 NOSIG
RJBB 160630Z 04006KT 9999 FEW030 BKN120 BKN/// 21/13 Q1011 NOSIG
RJBB 160600Z 02007KT 9999 FEW030 BKN120 BKN/// 21/13 Q1011 NOSIG
RJBB 160530Z 04006KT 9999 FEW030 SCT120 BKN/// 22/14 Q1011 NOSIG
RJBB 160500Z 03007KT 9999 FEW025 SCT130 BKN/// 22/15 Q1011 NOSIG
RJBB 160430Z 03007KT 9999 FEW025 SCT150 BKN/// 21/14 Q1012 NOSIG
RJBB 160400Z 03008KT 9999 FEW025 SCT150 BKN/// 21/14 Q1012 NOSIG
RJBB 160330Z 05007KT 9999 FEW025 BKN150 BKN/// 21/14 Q1013 NOSIG
RJBB 160300Z 06007KT 030V100 9999 FEW025 SCT150 BKN/// 21/14 Q1013 NOSIG
RJBB 160230Z 05008KT 9999 FEW030 SCT150 BKN/// 21/15 Q1013 NOSIG
RJBB 160200Z 04008KT 9999 FEW030 BKN/// 21/15 Q1013 NOSIG
RJBB 160130Z 05009KT 9999 FEW030 BKN/// 20/15 Q1014 NOSIG
RJBB 160100Z 05010KT 9999 FEW025 BKN/// 20/15 Q1014 NOSIG
RJBB 160030Z 06009KT 9999 FEW025 SCT150 BKN/// 19/14 Q1015 NOSIG
RJBB 160000Z 07010KT 9999 FEW025 SCT180 BKN/// 19/15 Q1015 NOSIG
RJBB 152330Z 06010KT 9999 FEW025 SCT180 BKN/// 19/15 Q1015 NOSIG
RJBB 152300Z 06012KT 9999 FEW025 SCT160 BKN/// 18/15 Q1015 NOSIG
RJBB 152230Z 06011KT 9999 FEW025 SCT160 BKN/// 18/15 Q1015 NOSIG
RJBB 152200Z 06009KT 9999 FEW025 SCT080 BKN/// 18/15 Q1015 NOSIG
RJBB 152130Z 06009KT 9999 FEW025 SCT080 BKN/// 17/15 Q1015 NOSIG
RJBB 152100Z 06008KT 9999 FEW025 SCT080 BKN/// 17/14 Q1015 NOSIG
RJBB 152030Z AUTO 07009KT 9999 NSC 18/15 Q1015 NOSIG
RJBB 152000Z AUTO 07009KT 9999 NSC 18/15 Q1015 NOSIG
RJBB 151930Z AUTO 07008KT 9999 NSC 18/15 Q1016 NOSIG
RJBB 151900Z AUTO 07008KT 9999 NSC 18/15 Q1015 NOSIG
RJBB 151830Z AUTO 06008KT 9999 NSC 18/15 Q1015 NOSIG
RJBB 151800Z AUTO 08007KT 9999 NCD 18/15 Q1016 NOSIG
RJBB 151730Z AUTO 07007KT 9999 NCD 17/15 Q1016 NOSIG
RJBB 151700Z AUTO 09006KT 9999 NCD 18/15 Q1016 NOSIG
RJBB 151630Z AUTO 11007KT 9999 NCD 18/15 Q1016 NOSIG
RJBB 151600Z AUTO 09007KT 9999 NCD 18/15 Q1016 NOSIG
RJBB 151530Z AUTO 07007KT 9999 FEW025 17/14 Q1016 NOSIG
RJBB 151500Z AUTO 08005KT 9999 FEW023 SCT025 BKN028 18/14 Q1016 NOSIG
RJBB 151430Z AUTO 15003KT 9999 NCD 18/14 Q1016 BECMG 06008KT
RJBB 151400Z AUTO 14003KT 9999 NCD 19/15 Q1016 BECMG 06008KT
RJBB 151330Z 15005KT 090V240 9999 FEW025 BKN/// 19/15 Q1016 BECMG 06008KT
RJBB 151300Z 14005KT 9999 FEW025 BKN/// 19/16 Q1016 BECMG 06008KT
RJBB 151230Z 14005KT 100V160 9999 FEW025 BKN/// 19/16 Q1017 BECMG TL1330 03010KT
RJBB 151200Z 13005KT 9999 FEW025 BKN/// 19/15 Q1017 BECMG TL1330 03010KT
RJBB 151130Z 14005KT 9999 FEW025 BKN/// 19/14 Q1017 BECMG FM1200 03012KT
RJBB 151100Z 16004KT 9999 FEW025 BKN/// 20/15 Q1016 BECMG FM1200 03012KT
RJBB 151030Z VRB04KT 9999 FEW025 BKN/// 20/15 Q1016 NOSIG
RJBB 151000Z VRB02KT 9999 FEW025 BKN/// 20/14 Q1016 NOSIG
RJBB 150930Z VRB02KT 9999 FEW025 BKN/// 21/15 Q1016 NOSIG
RJBB 150900Z VRB04KT 9999 FEW025 BKN/// 21/12 Q1015 NOSIG
RJBB 150830Z 20003KT 9999 FEW025 BKN/// 21/13 Q1015 NOSIG
RJBB 150800Z 20003KT 160V230 9999 FEW025 BKN/// 21/13 Q1015 NOSIG
RJBB 150730Z 22003KT 190V250 9999 FEW025 BKN/// 21/13 Q1015 NOSIG
RJBB 150700Z 26003KT 210V290 9999 FEW025 BKN/// 22/14 Q1016 NOSIG
RJBB 150630Z 27002KT 9999 FEW025 BKN/// 22/13 Q1016 NOSIG
RJBB 150600Z VRB02KT 9999 FEW025 BKN/// 21/12 Q1016 NOSIG
RJBB 150530Z 28003KT 240V320 9999 FEW025 BKN/// 21/13 Q1016 NOSIG
RJBB 150500Z 29003KT 240V010 9999 FEW025 BKN/// 22/14 Q1016 NOSIG
RJBB 150430Z 31005KT 290V350 9999 FEW025 BKN/// 21/14 Q1016 NOSIG